Aérodrome :
LOGIN :

S'inscrire | Disclaimer

   EN    FR    IT 

 










Légende :    VFR   VFR Marginal   IFR   IFR Intensif   IFR Très Intensif
Visi : 
Plafond : 
>= 8 km
>= 3000ft
5 à 8 km
1000 à 3000 ft
1500m à 5 km
500 à 1000 ft
800 à 1500m
200 à 500 ft
< 800m
< 200 ft
Symboles :   Orages  Brouillard  Fortes neiges  Fortes précipitations  Vent > 20 kt
SIGMETs :   Divers  Orages  Givrage  Turbulence  Onde Orograph.  Cendres Volcan.







- Altitude de l'aérodrome : 55 ft
- Voir les cartes d'approche


EGNO - Warton Preston

DERNIER METAR :
  • 231450Z 26007KT 9999 4000W -SHRADZ BKN007 15/13 Q1013

METARs EXPIRÉS :
  • 231420Z 24003KT 9999 BKN013 15/14 Q1013
  • 231350Z VRB03KT 9999 BKN013 15/14 Q1012
  • 231320Z 18003KT 5000 -DZ BKN012 15/13 Q1013
  • 231250Z 17006KT 140V200 9999 BKN014 15/13 Q1013
  • 231220Z 16005KT 9999 FEW009 BKN017 14/13 Q1013

TAF TAF EGNO
Valide du 23 à 15h jusqu'au 23 à 18h UTC


231401Z 2315/2318 22012KT 9999 SCT024
ATIS : +44 1772 856 060
Pas de NOTAMs connus pour ce terrain.



MET'MAP, la Météo Aéronautique d'un coup d'oeil ! - Copyright ORBIFLY Décembre 2007 - Disclaimer

ORBIFLY MET'MAP TEAM :

Programmation & Développement : Alexandra Zaïnal
Conception & Développement : Baudouin d'Aumeries
Co-Programmation & Développement : Marc-Olivier Méhu
Soutien technique & logistique : Manuel Goepfert

Contact : metmap@orbifly.com




SOURCES & CREDITS :

   NOAA